Main page
METAR-TAF:

METAR-TAF

Airports :

Wellington, New Zealand

Wellington International Airport

latitude: 41-20S, longitude: 174-48E, elevation: 12 m

Current weather observation

The report was made 33 minutes ago, at 10:00 UTC
Wind 12 kt from the South
Temperature 11°C
Humidity 94%
Pressure 1021 hPa
Visibility: 7000 m

METAR: NZWN 281000Z AUTO 19012KT 7000 OVC007/// 11/10 Q1021 BECMG 9999

Time: 22:33 (10:33 UTC)

Forecast

The report was made 1 hour and 9 minutes ago, at 09:24 UTC
Forecast valid from 28 at 09 UTC to 29 at 06 UTC
Wind 15 kt from the South
Visibility 10 km or more
Broken clouds at a height of 1200 ft
light rain
Becoming
from 28 at 09 UTC to 28 at 11 UTC
Broken clouds at a height of 800 ft
Becoming
from 28 at 18 UTC to 28 at 20 UTC
Broken clouds at a height of 1400 ft
From 28 at 2000 UTC
Wind 5 kt from the South
Visibility 10 km or more
Broken clouds at a height of 3000 ft

TAF: NZWN 280924Z 2809/2906 18015KT 9999 -RA BKN012 BECMG 2809/2811 BKN008 BECMG 2818/2820 BKN014 FM282000 17005KT 9999 BKN030

Weather observations and forecasts of more than 4000 airports (METAR and TAF reports).

The available stations are represented by yellow and red dots on the map.

Hover mouse over dot to see the name of the station.

Then click to see weather observations and forecasts.

To change the map : click on the green buttons with a black cross to zoom in, on the green button with a dash to zoom out, or on the green arrows for adjacent maps.


METAR-TAF: